Wetterdaten: Woche 03.10.16 - 09.10.16 (KW40)
Datum Zeit Temp. Aussen Temp. o. S. +5cm Feuchte Auss BlattFeu 1 Luftdruck Regen Sonnenschein Regendauer Solar Windben Empfang
03.10.2016 00:00 12,3 C 12,2 C 10,4 C 90 % 1 lf 1016,2 hPa 0,0 l/m 0,00 h 0,03 h 0 W/m 24,0 km/h (4 Bft) 99,10 %
03.10.2016 01:00 12,1 C 12,1 C 10,3 C 91 % 1 lf 1017,2 hPa 0,0 l/m 0,00 h 0,00 h 0 W/m 19,6 km/h (3 Bft) 92,02 %
03.10.2016 02:00 11,8 C 11,7 C 10,1 C 92 % 1 lf 1018,0 hPa 0,0 l/m 0,00 h 0,00 h 0 W/m 17,8 km/h (3 Bft) 98,01 %
03.10.2016 03:00 11,9 C 12,0 C 10,5 C 94 % 1 lf 1018,8 hPa 0,0 l/m 0,00 h 0,00 h 0 W/m 18,0 km/h (3 Bft) 97,44 %
03.10.2016 04:00 12,2 C 12,2 C 10,6 C 95 % 4 lf 1019,2 hPa 0,0 l/m 0,00 h 0,17 h 0 W/m 18,5 km/h (3 Bft) 95,23 %
03.10.2016 05:00 12,1 C 12,0 C 10,6 C 95 % 12 lf 1019,8 hPa 0,0 l/m 0,00 h 0,00 h 0 W/m 14,6 km/h (3 Bft) 95,01 %
03.10.2016 06:00 12,1 C 12,0 C 10,6 C 95 % 8 lf 1020,6 hPa 0,2 l/m 0,00 h 0,17 h 0 W/m 12,8 km/h (3 Bft) 97,72 %
03.10.2016 07:00 12,2 C 12,1 C 10,6 C 96 % 15 lf 1021,0 hPa 0,0 l/m 0,00 h 0,00 h 3 W/m 11,9 km/h (2 Bft) 94,44 %
03.10.2016 08:00 12,3 C 12,6 C 11,2 C 96 % 4 lf 1021,6 hPa 0,0 l/m 0,00 h 0,00 h 28 W/m 11,5 km/h (2 Bft) 98,29 %
03.10.2016 09:00 12,7 C 13,6 C 11,9 C 96 % 5 lf 1022,3 hPa 0,0 l/m 0,03 h 0,10 h 76 W/m 13,6 km/h (3 Bft) 95,23 %
03.10.2016 10:00 13,4 C 14,4 C 13,0 C 96 % 6 lf 1023,0 hPa 0,4 l/m 0,10 h 0,27 h 92 W/m 12,6 km/h (3 Bft) 94,66 %
03.10.2016 11:00 13,9 C 19,6 C 14,5 C 95 % 13 lf 1023,6 hPa 0,0 l/m 0,60 h 0,13 h 383 W/m 14,1 km/h (3 Bft) 98,15 %
03.10.2016 12:00 15,5 C 23,8 C 15,7 C 87 % 0 lf 1024,1 hPa 0,0 l/m 0,73 h 0,00 h 480 W/m 17,1 km/h (3 Bft) 96,29 %
03.10.2016 13:00 16,7 C 25,5 C 15,7 C 76 % 0 lf 1024,6 hPa 0,0 l/m 0,90 h 0,00 h 537 W/m 18,0 km/h (3 Bft) 94,24 %
03.10.2016 14:00 17,3 C 24,9 C 16,3 C 72 % 0 lf 1024,8 hPa 0,0 l/m 0,80 h 0,00 h 477 W/m 17,2 km/h (3 Bft) 99,07 %
03.10.2016 15:00 17,8 C 25,2 C 16,9 C 68 % 0 lf 1024,9 hPa 0,0 l/m 0,97 h 0,00 h 632 W/m 16,2 km/h (3 Bft) 94,85 %
03.10.2016 16:00 18,0 C 23,8 C 16,6 C 67 % 0 lf 1025,0 hPa 0,0 l/m 0,73 h 0,00 h 275 W/m 13,9 km/h (3 Bft) 96,17 %
03.10.2016 17:00 17,8 C 18,8 C 16,0 C 67 % 0 lf 1025,0 hPa 0,0 l/m 0,23 h 0,00 h 81 W/m 11,1 km/h (2 Bft) 97,94 %
03.10.2016 18:00 16,8 C 16,4 C 14,6 C 73 % 0 lf 1025,4 hPa 0,0 l/m 0,00 h 0,00 h 33 W/m 7,4 km/h (2 Bft) 95,30 %
03.10.2016 19:00 15,8 C 14,4 C 12,6 C 81 % 12 lf 1026,0 hPa 0,4 l/m 0,00 h 0,23 h 6 W/m 11,6 km/h (2 Bft) 95,69 %
03.10.2016 20:00 14,6 C 14,3 C 12,2 C 85 % 2 lf 1026,6 hPa 0,0 l/m 0,00 h 0,00 h 5 W/m 12,8 km/h (3 Bft) 98,50 %
03.10.2016 21:00 13,8 C 13,0 C 11,5 C 86 % 0 lf 1027,1 hPa 0,0 l/m 0,00 h 0,00 h 5 W/m 11,3 km/h (2 Bft) 95,23 %
03.10.2016 22:00 12,9 C 12,4 C 11,2 C 90 % 1 lf 1027,6 hPa 0,0 l/m 0,00 h 0,00 h 5 W/m 11,4 km/h (2 Bft) 95,51 %
03.10.2016 23:00 12,9 C 12,5 C 11,2 C 92 % 1 lf 1028,0 hPa 0,0 l/m 0,00 h 0,00 h 5 W/m 12,3 km/h (3 Bft) 96,88 %
04.10.2016 00:00 12,1 C 11,3 C 10,1 C 93 % 2 lf 1028,5 hPa 0,0 l/m 0,00 h 0,00 h 5 W/m 6,5 km/h (2 Bft) 95,84 %
04.10.2016 01:00 11,4 C 10,0 C 8,5 C 93 % 8 lf 1029,1 hPa 0,0 l/m 0,00 h 0,00 h 4 W/m 3,4 km/h (1 Bft) 96,94 %
04.10.2016 02:00 10,5 C 9,4 C 7,7 C 93 % 15 lf 1029,4 hPa 0,0 l/m 0,00 h 0,00 h 3 W/m 4,8 km/h (1 Bft) 97,43 %
04.10.2016 03:00 9,8 C 8,1 C 6,9 C 94 % 15 lf 1029,9 hPa 0,0 l/m 0,00 h 0,00 h 5 W/m 0,8 km/h (0 Bft) 93,24 %
04.10.2016 04:00 9,5 C 9,0 C 8,0 C 95 % 15 lf 1030,0 hPa 0,0 l/m 0,00 h 0,00 h 0 W/m 8,5 km/h (2 Bft) 98,36 %
04.10.2016 05:00 10,5 C 10,6 C 9,4 C 97 % 15 lf 1030,3 hPa 0,0 l/m 0,00 h 0,00 h 0 W/m 11,2 km/h (2 Bft) 97,29 %
04.10.2016 06:00 10,9 C 10,8 C 9,8 C 97 % 15 lf 1030,5 hPa 0,0 l/m 0,00 h 0,00 h 0 W/m 11,0 km/h (2 Bft) 94,30 %
04.10.2016 07:00 11,1 C 11,1 C 10,0 C 98 % 7 lf 1030,9 hPa 0,0 l/m 0,00 h 0,00 h 8 W/m 10,0 km/h (2 Bft) 96,36 %
04.10.2016 08:00 11,2 C 12,0 C 10,8 C 98 % 2 lf 1031,2 hPa 0,0 l/m 0,00 h 0,00 h 25 W/m 10,8 km/h (2 Bft) 97,59 %
04.10.2016 09:00 11,8 C 12,8 C 11,7 C 98 % 1 lf 1031,5 hPa 0,0 l/m 0,00 h 0,00 h 60 W/m 12,2 km/h (2 Bft) 95,01 %
04.10.2016 10:00 12,4 C 13,5 C 12,6 C 96 % 1 lf 1031,7 hPa 0,0 l/m 0,00 h 0,00 h 88 W/m 17,1 km/h (3 Bft) 96,51 %
04.10.2016 11:00 13,5 C 16,0 C 14,6 C 91 % 0 lf 1031,9 hPa 0,0 l/m 0,27 h 0,00 h 239 W/m 19,2 km/h (3 Bft) 96,58 %
04.10.2016 12:00 15,3 C 18,7 C 16,0 C 83 % 0 lf 1031,9 hPa 0,0 l/m 0,50 h 0,00 h 361 W/m 23,0 km/h (4 Bft) 95,31 %
04.10.2016 13:00 16,2 C 18,7 C 16,0 C 76 % 0 lf 1032,0 hPa 0,0 l/m 0,37 h 0,00 h 302 W/m 26,7 km/h (4 Bft) 97,08 %
04.10.2016 14:00 17,1 C 21,3 C 16,7 C 71 % 0 lf 1031,7 hPa 0,0 l/m 0,70 h 0,00 h 388 W/m 22,2 km/h (4 Bft) 96,51 %
04.10.2016 15:00 17,8 C 22,9 C 16,1 C 64 % 0 lf 1031,4 hPa 0,0 l/m 0,83 h 0,00 h 436 W/m 25,9 km/h (4 Bft) 95,02 %
04.10.2016 16:00 17,8 C 22,3 C 15,8 C 61 % 0 lf 1031,3 hPa 0,0 l/m 0,93 h 0,00 h 337 W/m 28,9 km/h (5 Bft) 98,57 %
04.10.2016 17:00 17,3 C 19,9 C 15,0 C 61 % 0 lf 1031,2 hPa 0,0 l/m 1,00 h 0,00 h 171 W/m 25,2 km/h (4 Bft) 95,66 %
04.10.2016 18:00 16,0 C 15,7 C 13,5 C 62 % 0 lf 1031,5 hPa 0,0 l/m 0,90 h 0,00 h 189 W/m 23,2 km/h (4 Bft) 96,44 %
04.10.2016 19:00 14,5 C 13,7 C 11,9 C 65 % 0 lf 1031,9 hPa 0,0 l/m 0,00 h 0,00 h 113 W/m 16,5 km/h (3 Bft) 98,22 %
04.10.2016 20:00 13,3 C 12,7 C 10,9 C 70 % 0 lf 1032,3 hPa 0,0 l/m 0,00 h 0,00 h 0 W/m 16,2 km/h (3 Bft) 94,31 %
04.10.2016 21:00 12,5 C 11,9 C 10,0 C 74 % 0 lf 1032,5 hPa 0,0 l/m 0,00 h 0,00 h 0 W/m 14,1 km/h (3 Bft) 96,76 %
04.10.2016 22:00 11,6 C 11,2 C 9,2 C 77 % 0 lf 1032,6 hPa 0,0 l/m 0,00 h 0,00 h 0 W/m 13,7 km/h (3 Bft) 98,21 %
04.10.2016 23:00 11,0 C 10,7 C 8,8 C 80 % 0 lf 1032,7 hPa 0,0 l/m 0,00 h 0,00 h 0 W/m 13,7 km/h (3 Bft) 95,14 %
05.10.2016 00:00 10,2 C 9,3 C 7,5 C 82 % 0 lf 1032,5 hPa 0,0 l/m 0,00 h 0,00 h 0 W/m 10,7 km/h (2 Bft) 94,73 %
05.10.2016 01:00 9,6 C 9,4 C 7,8 C 85 % 0 lf 1032,5 hPa 0,0 l/m 0,00 h 0,00 h 0 W/m 17,3 km/h (3 Bft) 97,15 %
05.10.2016 02:00 9,5 C 9,4 C 7,8 C 86 % 0 lf 1032,4 hPa 0,0 l/m 0,00 h 0,00 h 0 W/m 18,4 km/h (3 Bft) 95,73 %
05.10.2016 03:00 9,2 C 8,9 C 7,2 C 87 % 0 lf 1032,1 hPa 0,0 l/m 0,00 h 0,00 h 5 W/m 17,1 km/h (3 Bft) 95,44 %
05.10.2016 04:00 8,7 C 8,3 C 6,7 C 88 % 1 lf 1032,1 hPa 0,0 l/m 0,00 h 0,00 h 5 W/m 12,5 km/h (3 Bft) 77,32 %
05.10.2016 05:00 8,2 C 8,0 C 6,4 C 89 % 1 lf 1031,9 hPa 0,0 l/m 0,00 h 0,00 h 5 W/m 14,8 km/h (3 Bft) 93,61 %
05.10.2016 06:00 7,6 C 6,9 C 5,6 C 90 % 1 lf 1031,9 hPa 0,0 l/m 0,00 h 0,00 h 5 W/m 13,0 km/h (3 Bft) 97,79 %
05.10.2016 07:00 7,0 C 6,8 C 5,2 C 91 % 1 lf 1032,3 hPa 0,0 l/m 0,00 h 0,00 h 14 W/m 13,7 km/h (3 Bft) 96,94 %
05.10.2016 08:00 7,1 C 7,8 C 6,0 C 91 % 0 lf 1032,4 hPa 0,0 l/m 0,87 h 0,00 h 77 W/m 24,9 km/h (4 Bft) 92,90 %
05.10.2016 09:00 8,4 C 13,8 C 8,8 C 87 % 0 lf 1032,6 hPa 0,0 l/m 1,00 h 0,00 h 247 W/m 28,0 km/h (4 Bft) 96,78 %
05.10.2016 10:00 10,5 C 16,4 C 12,7 C 76 % 0 lf 1032,9 hPa 0,0 l/m 1,00 h 0,00 h 391 W/m 30,1 km/h (5 Bft) 97,95 %
05.10.2016 11:00 12,0 C 17,5 C 14,5 C 68 % 0 lf 1032,9 hPa 0,0 l/m 1,00 h 0,00 h 559 W/m 30,7 km/h (5 Bft) 93,36 %
05.10.2016 12:00 13,2 C 18,5 C 13,0 C 62 % 0 lf 1032,8 hPa 0,0 l/m 0,97 h 0,00 h 810 W/m 36,4 km/h (5 Bft) 97,80 %
05.10.2016 13:00 14,4 C 19,9 C 13,0 C 59 % 0 lf 1032,0 hPa 0,0 l/m 1,00 h 0,00 h 718 W/m 26,6 km/h (4 Bft) 97,08 %
05.10.2016 14:00 15,1 C 20,7 C 13,2 C 57 % 0 lf 1031,0 hPa 0,0 l/m 1,00 h 0,00 h 542 W/m 27,1 km/h (4 Bft) 95,10 %
05.10.2016 15:00 15,2 C 21,4 C 13,1 C 55 % 0 lf 1030,5 hPa 0,0 l/m 0,97 h 0,00 h 500 W/m 29,4 km/h (5 Bft) 97,08 %
05.10.2016 16:00 14,9 C 20,0 C 12,7 C 54 % 0 lf 1030,1 hPa 0,0 l/m 1,00 h 0,00 h 348 W/m 29,5 km/h (5 Bft) 95,81 %
05.10.2016 17:00 14,1 C 16,8 C 11,9 C 56 % 0 lf 1029,6 hPa 0,0 l/m 1,00 h 0,00 h 328 W/m 28,3 km/h (4 Bft) 96,68 %
05.10.2016 18:00 12,7 C 12,4 C 10,4 C 58 % 0 lf 1029,4 hPa 0,0 l/m 0,50 h 0,00 h 250 W/m 23,0 km/h (4 Bft) 95,52 %
05.10.2016 19:00 11,4 C 10,6 C 8,8 C 63 % 0 lf 1029,4 hPa 0,0 l/m 0,00 h 0,00 h 20 W/m 15,9 km/h (3 Bft) 95,19 %
05.10.2016 20:00 10,2 C 9,2 C 7,3 C 68 % 0 lf 1029,2 hPa 0,0 l/m 0,00 h 0,00 h 3 W/m 11,9 km/h (2 Bft) 96,27 %
05.10.2016 21:00 9,2 C 7,9 C 5,8 C 72 % 0 lf 1028,9 hPa 0,0 l/m 0,00 h 0,00 h 5 W/m 8,5 km/h (2 Bft) 96,23 %
05.10.2016 22:00 8,1 C 6,3 C 4,7 C 77 % 0 lf 1028,7 hPa 0,0 l/m 0,00 h 0,00 h 3 W/m 5,7 km/h (1 Bft) 95,75 %
05.10.2016 23:00 7,3 C 6,4 C 5,0 C 82 % 0 lf 1028,5 hPa 0,0 l/m 0,00 h 0,00 h 0 W/m 8,8 km/h (2 Bft) 95,32 %
06.10.2016 00:00 6,8 C 5,8 C 4,6 C 84 % 0 lf 1028,1 hPa 0,0 l/m 0,00 h 0,00 h 0 W/m 7,8 km/h (2 Bft) 91,68 %
06.10.2016 01:00 6,1 C 4,6 C 3,2 C 84 % 0 lf 1027,7 hPa 0,0 l/m 0,00 h 0,00 h 0 W/m 6,8 km/h (2 Bft) 95,46 %
06.10.2016 02:00 5,8 C 5,5 C 4,2 C 87 % 0 lf 1027,5 hPa 0,0 l/m 0,00 h 0,00 h 0 W/m 10,8 km/h (2 Bft) 97,29 %
06.10.2016 03:00 5,9 C 5,5 C 4,2 C 87 % 0 lf 1027,2 hPa 0,0 l/m 0,00 h 0,00 h 0 W/m 12,4 km/h (3 Bft) 97,37 %
06.10.2016 04:00 5,2 C 3,6 C 2,4 C 87 % 1 lf 1026,6 hPa 0,0 l/m 0,00 h 0,00 h 0 W/m 5,3 km/h (1 Bft) 93,86 %
06.10.2016 05:00 4,2 C 2,7 C 1,7 C 88 % 2 lf 1026,0 hPa 0,0 l/m 0,00 h 0,00 h 0 W/m 5,0 km/h (1 Bft) 95,38 %
06.10.2016 06:00 3,9 C 3,8 C 3,0 C 90 % 1 lf 1025,7 hPa 0,0 l/m 0,00 h 0,00 h 0 W/m 6,6 km/h (2 Bft) 98,08 %
06.10.2016 07:00 4,7 C 5,1 C 4,1 C 93 % 1 lf 1025,2 hPa 0,0 l/m 0,00 h 0,00 h 6 W/m 7,6 km/h (2 Bft) 94,88 %
06.10.2016 08:00 5,3 C 6,1 C 5,0 C 93 % 0 lf 1025,0 hPa 0,0 l/m 0,00 h 0,00 h 34 W/m 7,2 km/h (2 Bft) 97,08 %
06.10.2016 09:00 6,4 C 8,2 C 6,7 C 91 % 0 lf 1024,7 hPa 0,0 l/m 0,17 h 0,00 h 109 W/m 12,1 km/h (2 Bft) 95,45 %
06.10.2016 10:00 8,0 C 10,3 C 8,7 C 85 % 0 lf 1024,4 hPa 0,0 l/m 0,23 h 0,00 h 183 W/m 17,6 km/h (3 Bft) 94,59 %
06.10.2016 11:00 9,6 C 12,1 C 10,4 C 79 % 0 lf 1024,0 hPa 0,0 l/m 0,30 h 0,00 h 246 W/m 20,8 km/h (4 Bft) 98,14 %
06.10.2016 12:00 10,8 C 12,4 C 11,1 C 75 % 0 lf 1023,7 hPa 0,0 l/m 0,00 h 0,00 h 169 W/m 23,2 km/h (4 Bft) 95,03 %
06.10.2016 13:00 11,1 C 12,3 C 11,4 C 77 % 0 lf 1023,3 hPa 0,0 l/m 0,00 h 0,00 h 163 W/m 26,6 km/h (4 Bft) 95,09 %
06.10.2016 14:00 11,4 C 12,8 C 11,6 C 78 % 0 lf 1022,8 hPa 0,0 l/m 0,00 h 0,00 h 170 W/m 25,7 km/h (4 Bft) 98,15 %
06.10.2016 15:00 11,5 C 12,7 C 11,9 C 79 % 0 lf 1022,2 hPa 0,0 l/m 0,00 h 0,00 h 148 W/m 20,3 km/h (4 Bft) 95,87 %
06.10.2016 16:00 11,7 C 12,6 C 11,7 C 79 % 0 lf 1021,9 hPa 0,0 l/m 0,07 h 0,00 h 120 W/m 24,3 km/h (4 Bft) 93,44 %
06.10.2016 17:00 11,6 C 12,1 C 11,1 C 80 % 0 lf 1021,7 hPa 0,0 l/m 0,00 h 0,00 h 66 W/m 21,8 km/h (4 Bft) 98,37 %
06.10.2016 18:00 11,4 C 11,5 C 10,3 C 82 % 0 lf 1021,9 hPa 0,0 l/m 0,00 h 0,00 h 11 W/m 15,8 km/h (3 Bft) 95,91 %
06.10.2016 19:00 11,2 C 11,1 C 9,9 C 83 % 0 lf 1022,0 hPa 0,0 l/m 0,00 h 0,00 h 0 W/m 16,4 km/h (3 Bft) 94,81 %
06.10.2016 20:00 11,0 C 10,8 C 9,2 C 86 % 5 lf 1022,1 hPa 0,0 l/m 0,00 h 0,00 h 0 W/m 8,9 km/h (2 Bft) 95,80 %
06.10.2016 21:00 10,7 C 10,8 C 9,3 C 89 % 1 lf 1022,0 hPa 0,0 l/m 0,00 h 0,00 h 0 W/m 10,9 km/h (2 Bft) 95,16 %
06.10.2016 22:00 10,8 C 11,1 C 9,8 C 89 % 0 lf 1021,8 hPa 0,0 l/m 0,00 h 0,00 h 0 W/m 15,7 km/h (3 Bft) 96,08 %
06.10.2016 23:00 10,8 C 11,1 C 9,9 C 89 % 0 lf 1021,3 hPa 0,0 l/m 0,00 h 0,00 h 0 W/m 18,9 km/h (3 Bft) 97,44 %
07.10.2016 00:00 10,9 C 11,1 C 10,0 C 89 % 0 lf 1021,2 hPa 0,0 l/m 0,00 h 0,00 h 0 W/m 15,6 km/h (3 Bft) 92,97 %
07.10.2016 01:00 11,0 C 11,1 C 10,0 C 89 % 0 lf 1021,1 hPa 0,0 l/m 0,00 h 0,00 h 0 W/m 15,5 km/h (3 Bft) 97,58 %
07.10.2016 02:00 11,0 C 11,1 C 10,0 C 89 % 0 lf 1020,7 hPa 0,0 l/m 0,00 h 0,00 h 0 W/m 16,1 km/h (3 Bft) 97,42 %
07.10.2016 03:00 11,0 C 11,1 C 10,0 C 90 % 0 lf 1020,4 hPa 0,0 l/m 0,00 h 0,00 h 0 W/m 15,9 km/h (3 Bft) 93,67 %
07.10.2016 04:00 11,0 C 11,1 C 10,0 C 90 % 0 lf 1020,2 hPa 0,0 l/m 0,00 h 0,00 h 0 W/m 16,2 km/h (3 Bft) 95,81 %
07.10.2016 05:00 11,1 C 11,1 C 10,0 C 89 % 0 lf 1020,1 hPa 0,0 l/m 0,00 h 0,00 h 0 W/m 14,2 km/h (3 Bft) 97,94 %
07.10.2016 06:00 11,0 C 11,1 C 9,8 C 90 % 1 lf 1020,1 hPa 0,0 l/m 0,00 h 0,00 h 0 W/m 11,7 km/h (2 Bft) 93,75 %
07.10.2016 07:00 10,8 C 10,8 C 9,2 C 91 % 8 lf 1020,1 hPa 0,0 l/m 0,00 h 0,03 h 0 W/m 10,4 km/h (2 Bft) 96,44 %
07.10.2016 08:00 10,6 C 10,8 C 9,2 C 93 % 12 lf 1020,0 hPa 0,0 l/m 0,00 h 0,00 h 11 W/m 9,7 km/h (2 Bft) 96,79 %
07.10.2016 09:00 10,7 C 11,1 C 9,9 C 92 % 1 lf 1020,0 hPa 0,0 l/m 0,00 h 0,00 h 18 W/m 12,1 km/h (2 Bft) 95,23 %
07.10.2016 10:00 10,9 C 11,9 C 10,7 C 92 % 1 lf 1020,2 hPa 0,0 l/m 0,00 h 0,00 h 68 W/m 14,4 km/h (3 Bft) 97,72 %
07.10.2016 11:00 11,7 C 12,4 C 11,3 C 89 % 0 lf 1020,5 hPa 0,0 l/m 0,00 h 0,00 h 67 W/m 16,6 km/h (3 Bft) 95,88 %
07.10.2016 12:00 11,8 C 13,0 C 11,9 C 88 % 0 lf 1020,6 hPa 0,0 l/m 0,00 h 0,00 h 103 W/m 12,7 km/h (3 Bft) 94,79 %
07.10.2016 13:00 12,2 C 13,1 C 11,8 C 86 % 0 lf 1020,7 hPa 0,0 l/m 0,00 h 0,00 h 87 W/m 11,5 km/h (2 Bft) 98,56 %
07.10.2016 14:00 12,3 C 13,3 C 11,9 C 86 % 1 lf 1020,5 hPa 0,0 l/m 0,00 h 0,03 h 99 W/m 9,7 km/h (2 Bft) 95,38 %
07.10.2016 15:00 12,9 C 15,7 C 13,8 C 86 % 0 lf 1020,0 hPa 0,0 l/m 0,17 h 0,00 h 196 W/m 10,8 km/h (2 Bft) 94,59 %
07.10.2016 16:00 13,9 C 17,4 C 13,4 C 81 % 0 lf 1019,6 hPa 0,0 l/m 0,53 h 0,00 h 330 W/m 14,2 km/h (3 Bft) 97,78 %
07.10.2016 17:00 13,8 C 14,0 C 12,5 C 80 % 0 lf 1019,5 hPa 0,0 l/m 0,00 h 0,00 h 38 W/m 12,3 km/h (3 Bft) 97,02 %
07.10.2016 18:00 13,3 C 13,0 C 11,5 C 82 % 3 lf 1019,7 hPa 0,0 l/m 0,00 h 0,17 h 9 W/m 8,3 km/h (2 Bft) 93,49 %
07.10.2016 19:00 12,9 C 11,9 C 10,2 C 85 % 15 lf 1020,0 hPa 0,0 l/m 0,00 h 0,47 h 4 W/m 7,8 km/h (2 Bft) 98,36 %
07.10.2016 20:00 12,3 C 12,1 C 10,1 C 86 % 4 lf 1020,2 hPa 0,0 l/m 0,00 h 0,00 h 0 W/m 13,1 km/h (3 Bft) 95,40 %
07.10.2016 21:00 12,2 C 12,2 C 10,6 C 86 % 0 lf 1020,4 hPa 0,0 l/m 0,00 h 0,00 h 0 W/m 13,5 km/h (3 Bft) 95,88 %
07.10.2016 22:00 12,1 C 12,2 C 10,6 C 87 % 0 lf 1020,7 hPa 0,0 l/m 0,00 h 0,00 h 0 W/m 15,3 km/h (3 Bft) 96,31 %
07.10.2016 23:00 11,8 C 11,5 C 10,2 C 88 % 0 lf 1020,8 hPa 0,0 l/m 0,00 h 0,00 h 0 W/m 10,9 km/h (2 Bft) 95,02 %
08.10.2016 00:00 11,5 C 11,3 C 10,0 C 89 % 1 lf 1020,6 hPa 0,0 l/m 0,00 h 0,00 h 0 W/m 8,9 km/h (2 Bft) 96,50 %
08.10.2016 01:00 11,1 C 11,1 C 9,8 C 91 % 1 lf 1020,9 hPa 0,0 l/m 0,00 h 0,00 h 0 W/m 11,6 km/h (2 Bft) 96,83 %
08.10.2016 02:00 10,7 C 10,6 C 9,4 C 92 % 1 lf 1020,9 hPa 0,0 l/m 0,00 h 0,00 h 0 W/m 11,5 km/h (2 Bft) 93,44 %
08.10.2016 03:00 10,6 C 10,6 C 9,4 C 93 % 1 lf 1020,8 hPa 0,0 l/m 0,00 h 0,00 h 0 W/m 10,1 km/h (2 Bft) 96,65 %
08.10.2016 04:00 10,7 C 10,6 C 9,4 C 94 % 1 lf 1020,6 hPa 0,0 l/m 0,00 h 0,00 h 0 W/m 8,8 km/h (2 Bft) 98,27 %
08.10.2016 05:00 10,7 C 11,0 C 9,9 C 94 % 1 lf 1020,6 hPa 0,0 l/m 0,00 h 0,00 h 0 W/m 11,6 km/h (2 Bft) 93,97 %
08.10.2016 06:00 10,6 C 10,9 C 9,6 C 91 % 0 lf 1020,9 hPa 0,0 l/m 0,00 h 0,00 h 0 W/m 18,6 km/h (3 Bft) 96,62 %
08.10.2016 07:00 10,1 C 10,0 C 8,8 C 87 % 0 lf 1021,5 hPa 0,0 l/m 0,00 h 0,00 h 8 W/m 19,2 km/h (3 Bft) 96,11 %
08.10.2016 08:00 9,5 C 9,4 C 7,8 C 87 % 0 lf 1022,0 hPa 0,0 l/m 0,70 h 0,00 h 59 W/m 14,5 km/h (3 Bft) 94,78 %
08.10.2016 09:00 9,7 C 15,4 C 9,6 C 88 % 0 lf 1022,5 hPa 0,0 l/m 1,00 h 0,00 h 211 W/m 16,0 km/h (3 Bft) 96,10 %
08.10.2016 10:00 11,2 C 19,9 C 13,0 C 83 % 0 lf 1023,0 hPa 0,0 l/m 1,00 h 0,00 h 376 W/m 17,1 km/h (3 Bft) 97,16 %
08.10.2016 11:00 12,5 C 21,4 C 13,1 C 75 % 0 lf 1023,3 hPa 0,0 l/m 0,93 h 0,00 h 768 W/m 19,5 km/h (3 Bft) 96,15 %
08.10.2016 12:00 12,9 C 16,7 C 12,9 C 70 % 0 lf 1023,4 hPa 0,0 l/m 0,90 h 0,00 h 663 W/m 19,7 km/h (3 Bft) 94,83 %
08.10.2016 13:00 13,5 C 19,4 C 13,2 C 65 % 0 lf 1023,2 hPa 0,0 l/m 0,63 h 0,00 h 465 W/m 19,7 km/h (3 Bft) 97,07 %
08.10.2016 14:00 13,9 C 16,3 C 13,5 C 61 % 0 lf 1023,2 hPa 0,0 l/m 0,67 h 0,00 h 438 W/m 20,2 km/h (4 Bft) 96,46 %
08.10.2016 15:00 13,4 C 15,1 C 13,1 C 63 % 0 lf 1023,3 hPa 0,0 l/m 0,50 h 0,03 h 323 W/m 12,8 km/h (3 Bft) 94,95 %
08.10.2016 16:00 13,8 C 16,8 C 13,2 C 61 % 0 lf 1023,2 hPa 0,0 l/m 0,67 h 0,00 h 192 W/m 12,1 km/h (2 Bft) 95,83 %
08.10.2016 17:00 13,3 C 13,6 C 11,2 C 61 % 0 lf 1023,3 hPa 0,0 l/m 0,00 h 0,00 h 66 W/m 10,0 km/h (2 Bft) 97,92 %
08.10.2016 18:00 12,0 C 10,5 C 8,6 C 66 % 0 lf 1023,6 hPa 0,0 l/m 0,00 h 0,00 h 16 W/m 5,9 km/h (2 Bft) 93,94 %
08.10.2016 19:00 10,2 C 7,6 C 6,0 C 72 % 0 lf 1023,9 hPa 0,0 l/m 0,00 h 0,00 h 4 W/m 4,0 km/h (1 Bft) 94,49 %
08.10.2016 20:00 8,4 C 6,8 C 5,4 C 79 % 0 lf 1024,2 hPa 0,0 l/m 0,00 h 0,00 h 0 W/m 3,4 km/h (1 Bft) 95,93 %
08.10.2016 21:00 7,8 C 6,6 C 5,5 C 81 % 0 lf 1024,5 hPa 0,0 l/m 0,00 h 0,00 h 3 W/m 0,0 km/h (0 Bft) 97,29 %
08.10.2016 22:00 7,1 C 5,1 C 4,0 C 84 % 1 lf 1024,9 hPa 0,0 l/m 0,00 h 0,00 h 0 W/m 0,0 km/h (0 Bft) 96,06 %
08.10.2016 23:00 6,1 C 4,4 C 3,5 C 86 % 3 lf 1025,0 hPa 0,0 l/m 0,00 h 0,00 h 0 W/m 0,0 km/h (0 Bft) 95,10 %
09.10.2016 00:00 5,3 C 3,9 C 2,9 C 87 % 8 lf 1024,8 hPa 0,0 l/m 0,00 h 0,00 h 4 W/m 0,0 km/h (0 Bft) 96,53 %
09.10.2016 01:00 4,5 C 3,0 C 2,2 C 88 % 15 lf 1024,7 hPa 0,0 l/m 0,00 h 0,00 h 3 W/m 0,0 km/h (0 Bft) 94,75 %
09.10.2016 02:00 4,2 C 3,8 C 3,2 C 90 % 15 lf 1024,8 hPa 0,0 l/m 0,00 h 0,00 h 1 W/m 0,0 km/h (0 Bft) 97,40 %
09.10.2016 03:00 4,5 C 4,2 C 3,3 C 92 % 15 lf 1024,6 hPa 0,0 l/m 0,00 h 0,00 h 4 W/m 1,5 km/h (1 Bft) 97,16 %
09.10.2016 04:00 4,8 C 4,4 C 3,9 C 93 % 15 lf 1024,5 hPa 0,0 l/m 0,00 h 0,00 h 4 W/m 1,4 km/h (1 Bft) 93,29 %
09.10.2016 05:00 5,0 C 4,9 C 4,0 C 93 % 15 lf 1024,4 hPa 0,0 l/m 0,00 h 0,00 h 0 W/m 2,4 km/h (1 Bft) 96,75 %
09.10.2016 06:00 5,2 C 5,0 C 4,4 C 94 % 10 lf 1024,3 hPa 0,0 l/m 0,00 h 0,00 h 0 W/m 3,3 km/h (1 Bft) 97,70 %
09.10.2016 07:00 5,5 C 5,4 C 4,4 C 94 % 4 lf 1024,4 hPa 0,0 l/m 0,00 h 0,00 h 6 W/m 4,1 km/h (1 Bft) 94,89 %
09.10.2016 08:00 5,7 C 6,5 C 5,4 C 95 % 3 lf 1024,7 hPa 0,0 l/m 0,43 h 0,00 h 54 W/m 1,5 km/h (1 Bft) 96,09 %
09.10.2016 09:00 6,9 C 12,9 C 8,7 C 96 % 1 lf 1024,9 hPa 0,0 l/m 0,67 h 0,00 h 203 W/m 6,1 km/h (2 Bft) 94,24 %
09.10.2016 10:00 8,8 C 15,7 C 9,9 C 95 % 0 lf 1025,0 hPa 0,0 l/m 0,60 h 0,00 h 227 W/m 7,6 km/h (2 Bft) 96,60 %
09.10.2016 11:00 10,4 C 20,7 C 10,7 C 87 % 0 lf 1025,1 hPa 0,0 l/m 0,67 h 0,00 h 351 W/m 8,5 km/h (2 Bft) 96,30 %
09.10.2016 12:00 11,5 C 17,3 C 11,3 C 75 % 0 lf 1025,1 hPa 0,0 l/m 0,47 h 0,00 h 317 W/m 12,3 km/h (3 Bft) 95,83 %
09.10.2016 13:00 12,9 C 20,5 C 11,9 C 65 % 0 lf 1024,6 hPa 0,0 l/m 0,57 h 0,00 h 366 W/m 11,7 km/h (2 Bft) 96,92 %
09.10.2016 14:00 13,7 C 23,5 C 12,9 C 61 % 0 lf 1024,2 hPa 0,0 l/m 0,97 h 0,00 h 565 W/m 14,0 km/h (3 Bft) 95,61 %
09.10.2016 15:00 14,0 C 21,6 C 13,4 C 59 % 0 lf 1024,0 hPa 0,0 l/m 1,00 h 0,00 h 753 W/m 15,5 km/h (3 Bft) 96,64 %
09.10.2016 16:00 14,1 C 17,9 C 13,3 C 56 % 0 lf 1023,9 hPa 0,0 l/m 0,53 h 0,00 h 238 W/m 12,8 km/h (3 Bft) 95,97 %
09.10.2016 17:00 13,1 C 13,9 C 12,0 C 59 % 0 lf 1023,8 hPa 0,0 l/m 0,27 h 0,00 h 96 W/m 13,2 km/h (3 Bft) 96,46 %
09.10.2016 18:00 12,3 C 12,1 C 10,7 C 65 % 0 lf 1023,9 hPa 0,0 l/m 0,00 h 0,00 h 22 W/m 8,9 km/h (2 Bft) 96,27 %
09.10.2016 19:00 11,6 C 10,9 C 9,4 C 68 % 0 lf 1024,1 hPa 0,0 l/m 0,00 h 0,00 h 5 W/m 3,8 km/h (1 Bft) 96,45 %
09.10.2016 20:00 10,7 C 9,3 C 7,7 C 73 % 0 lf 1024,3 hPa 0,0 l/m 0,00 h 0,00 h 2 W/m 0,0 km/h (0 Bft) 96,86 %
09.10.2016 21:00 9,5 C 8,0 C 6,5 C 79 % 0 lf 1024,4 hPa 0,0 l/m 0,00 h 0,00 h 3 W/m 0,0 km/h (0 Bft) 93,73 %
09.10.2016 22:00 8,5 C 7,7 C 6,1 C 83 % 1 lf 1024,5 hPa 0,0 l/m 0,00 h 0,00 h 0 W/m 0,9 km/h (0 Bft) 96,50 %
09.10.2016 23:00 8,0 C 7,7 C 6,4 C 86 % 1 lf 1024,5 hPa 0,0 l/m 0,00 h 0,00 h 0 W/m 0,3 km/h (0 Bft) 98,29 %
Min-Datum _ 06.10.16 06.10.16 06.10.16 05.10.16 03.10.16 03.10.16 - - - - 03.10.16 05.10.16
_ Min-Zeit 06:06 05:40 05:44 16:00 10:12 00:00 - - - - 19:04 04:02
Minimum _ 3,6 C 2,2 C 1,1 C 51 % 0 lf 1015,8 hPa - - - - 0,0 km/h (0 Bft) 0,00 %
Max-Datum _ 03.10.16 03.10.16 03.10.16 04.10.16 03.10.16 05.10.16 03.10.16 03.10.16 03.10.16 05.10.16 05.10.16 03.10.16
_ Max-Zeit 16:00 15:10 15:56 06:42 04:50 10:40 10:44 09:58 00:50 12:52 12:32 00:00
Maximum _ 18,2 C 28,3 C 17,8 C 98 % 15 lf 1033,1 hPa 0,4 l/m 0,03 h 0,03 h 1295 W/m 52,3 km/h
O (7 Bft)
100,00 %
Durchschnitt _ 11,1 C 12,3 C 9,9 C 82 % 2 lf 1025,3 hPa #1,0 l/m #35:32 h #1:50 h 178 W/m 13,4 km/h (3 Bft) 95,96 %
© 2016 W. Hausmann